createdAt,value
2019-01-21T00:02:08.328Z,114.43
2019-01-21T00:04:36.743Z,114.60
2019-01-21T00:07:05.295Z,111.40
2019-01-21T00:09:33.583Z,108.77
2019-01-21T00:12:02.154Z,108.53
2019-01-21T00:14:30.745Z,107.33
2019-01-21T00:16:59.035Z,106.13
2019-01-21T00:19:27.356Z,130.30
2019-01-21T00:21:55.891Z,155.30
2019-01-21T00:24:24.458Z,174.93
2019-01-21T00:26:53.047Z,152.60
2019-01-21T00:29:21.627Z,145.70
2019-01-21T00:31:50.207Z,147.67
2019-01-21T00:34:18.499Z,152.20
2019-01-21T00:36:46.823Z,146.87
2019-01-21T00:39:15.194Z,145.50
2019-01-21T00:41:43.517Z,144.60
2019-01-21T00:44:11.811Z,145.63
2019-01-21T00:46:40.233Z,139.40
2019-01-21T00:49:08.864Z,137.83
2019-01-21T00:51:37.450Z,133.47
2019-01-21T00:54:06.026Z,132.40
2019-01-21T00:56:34.323Z,132.23
2019-01-21T00:59:02.890Z,129.93
2019-01-21T01:01:31.182Z,132.73
2019-01-21T01:03:59.478Z,127.27
2019-01-21T01:06:27.774Z,115.30
2019-01-21T01:08:56.405Z,129.27
2019-01-21T01:11:24.710Z,125.13
2019-01-21T01:13:53.263Z,115.93
2019-01-21T01:16:24.608Z,137.43
2019-01-21T01:18:52.892Z,124.63
2019-01-21T01:21:21.474Z,117.63
2019-01-21T01:23:50.059Z,130.90
2019-01-21T01:26:18.346Z,144.60
2019-01-21T01:28:46.655Z,136.77
2019-01-21T01:31:15.196Z,121.87
2019-01-21T01:33:43.499Z,120.27
2019-01-21T01:36:12.054Z,136.80
2019-01-21T01:38:40.357Z,131.97
2019-01-21T01:41:08.646Z,133.23
2019-01-21T01:43:36.947Z,130.57
2019-01-21T01:46:05.245Z,132.87
2019-01-21T01:48:33.546Z,129.37
2019-01-21T01:51:01.847Z,130.53
2019-01-21T01:53:30.907Z,119.27
2019-01-21T01:55:59.499Z,129.00
2019-01-21T01:58:28.114Z,134.73
2019-01-21T02:00:56.781Z,142.97
2019-01-21T02:03:25.074Z,153.43
2019-01-21T02:05:53.746Z,147.13
2019-01-21T02:08:22.311Z,136.07
2019-01-21T02:10:50.638Z,141.20
2019-01-21T02:13:19.274Z,140.07
2019-01-21T02:15:47.860Z,139.20
2019-01-21T02:18:16.244Z,128.00
2019-01-21T02:20:45.229Z,119.43
2019-01-21T02:23:15.805Z,112.40
2019-01-21T02:25:47.459Z,110.17
2019-01-21T02:28:24.995Z,124.63
2019-01-21T02:31:08.823Z,128.57
2019-01-21T02:34:11.122Z,118.57
2019-01-21T02:36:59.580Z,116.53
2019-01-21T02:39:42.976Z,117.03
2019-01-21T02:42:23.630Z,116.73
2019-01-21T02:45:14.997Z,112.23
2019-01-21T02:47:59.856Z,114.43
2019-01-21T02:50:32.210Z,112.93
2019-01-21T02:53:21.143Z,106.00
2019-01-21T02:56:20.597Z,97.20
2019-01-21T02:59:13.443Z,93.97
2019-01-21T03:02:06.175Z,87.97
2019-01-21T03:04:40.542Z,104.27
2019-01-21T03:07:17.860Z,105.53
2019-01-21T03:10:17.531Z,98.23
2019-01-21T03:13:01.107Z,97.43
2019-01-21T03:15:49.500Z,96.87
2019-01-21T03:18:52.587Z,97.30
2019-01-21T03:21:52.622Z,93.33
2019-01-21T03:24:26.613Z,94.70
2019-01-21T03:27:04.119Z,94.03
2019-01-21T03:29:52.567Z,91.00
2019-01-21T03:32:43.223Z,91.67
2019-01-21T03:35:14.924Z,89.43
2019-01-21T03:38:01.610Z,88.93
2019-01-21T03:40:36.264Z,87.43
2019-01-21T03:43:13.307Z,85.93
2019-01-21T03:45:50.586Z,83.63
2019-01-21T03:48:22.598Z,84.23
2019-01-21T03:51:03.307Z,83.10
2019-01-21T03:53:37.541Z,83.73
2019-01-21T03:56:07.986Z,80.13
2019-01-21T03:58:47.713Z,78.90
2019-01-21T04:01:36.311Z,76.47
2019-01-21T04:04:22.711Z,75.37
2019-01-21T04:06:54.223Z,73.43
2019-01-21T04:09:28.520Z,74.10
2019-01-21T04:12:19.675Z,74.77
2019-01-21T04:15:17.454Z,75.47
2019-01-21T04:17:57.487Z,70.80
2019-01-21T04:20:31.857Z,68.83
2019-01-21T04:23:15.643Z,69.93
2019-01-21T04:25:49.766Z,70.07
2019-01-21T04:28:21.567Z,66.73
2019-01-21T04:30:58.022Z,67.10
2019-01-21T04:33:41.670Z,66.83
2019-01-21T04:36:31.632Z,65.60
2019-01-21T04:39:03.633Z,66.57
2019-01-21T04:41:51.742Z,63.50
2019-01-21T04:44:29.535Z,61.93
2019-01-21T04:47:17.990Z,62.53
2019-01-21T04:49:52.727Z,62.13
2019-01-21T04:52:33.185Z,60.23
2019-01-21T04:55:38.314Z,58.63
2019-01-21T04:58:24.783Z,60.23
2019-01-21T05:01:17.566Z,58.50
2019-01-21T05:04:10.735Z,52.80
2019-01-21T05:07:01.386Z,53.10
2019-01-21T05:09:41.954Z,58.50
2019-01-21T05:12:40.896Z,64.97
2019-01-21T05:15:36.564Z,67.60
2019-01-21T05:18:10.879Z,64.33
2019-01-21T05:20:47.485Z,63.60
2019-01-21T05:23:35.752Z,42.83
2019-01-21T05:26:07.447Z,51.50
2019-01-21T05:28:55.570Z,53.60
2019-01-21T05:31:32.934Z,54.37
2019-01-21T05:34:16.002Z,57.47
2019-01-21T05:37:11.554Z,59.13
2019-01-21T05:40:01.051Z,59.00
2019-01-21T05:42:44.681Z,57.50
2019-01-21T05:45:25.658Z,55.37
2019-01-21T05:48:06.322Z,50.97
2019-01-21T05:51:12.874Z,57.00
2019-01-21T05:54:19.609Z,66.93
2019-01-21T05:57:11.917Z,58.80
2019-01-21T05:59:51.998Z,57.13
2019-01-21T06:02:39.947Z,57.50
2019-01-21T06:08:30.546Z,53.27
2019-01-21T06:11:08.230Z,54.50
2019-01-21T06:13:59.286Z,55.33
2019-01-21T06:16:33.310Z,54.40
2019-01-21T06:19:05.318Z,54.37
2019-01-21T06:21:43.218Z,50.17
2019-01-21T06:24:23.693Z,51.60
2019-01-21T06:26:55.258Z,49.93
2019-01-21T06:29:38.766Z,51.77
2019-01-21T06:32:13.113Z,50.27
2019-01-21T06:34:53.554Z,48.30
2019-01-21T06:37:39.996Z,47.93
2019-01-21T06:40:20.131Z,47.70
2019-01-21T06:42:51.713Z,46.10
2019-01-21T06:45:23.365Z,48.33
2019-01-21T06:48:10.126Z,47.17
2019-01-21T06:50:47.766Z,45.50
2019-01-21T06:53:30.530Z,43.23
2019-01-21T06:56:11.081Z,45.23
2019-01-21T06:58:58.925Z,43.87
2019-01-21T07:01:42.170Z,44.63
2019-01-21T07:04:22.834Z,43.60
2019-01-21T07:06:57.286Z,42.23
2019-01-21T07:09:46.871Z,41.90
2019-01-21T07:12:37.854Z,39.73
2019-01-21T07:15:27.617Z,40.23
2019-01-21T07:18:04.954Z,39.17
2019-01-21T07:23:36.494Z,39.63
2019-01-21T07:26:16.492Z,39.53
2019-01-21T07:29:12.844Z,39.53
2019-01-21T07:31:49.950Z,38.70
2019-01-21T07:34:39.939Z,37.70
2019-01-21T07:37:14.471Z,36.63
2019-01-21T07:40:06.982Z,37.23
2019-01-21T07:42:47.182Z,34.93
2019-01-21T07:45:41.578Z,35.83
2019-01-21T07:48:16.070Z,36.03
2019-01-21T07:51:04.727Z,35.37
2019-01-21T07:53:44.782Z,36.33
2019-01-21T07:56:37.259Z,35.37
2019-01-21T07:59:29.279Z,35.67
2019-01-21T08:02:03.870Z,33.57
2019-01-21T08:04:50.592Z,33.90
2019-01-21T08:07:27.978Z,32.97
2019-01-21T08:10:14.270Z,32.50
2019-01-21T08:12:54.546Z,33.43
2019-01-21T08:15:44.107Z,33.23
2019-01-21T08:18:24.303Z,33.50
2019-01-21T08:21:04.846Z,31.87
2019-01-21T08:23:45.102Z,31.77
2019-01-21T08:26:16.951Z,30.13
2019-01-21T08:29:07.043Z,29.97
2019-01-21T08:31:41.358Z,50.63
2019-01-21T08:34:16.082Z,72.07
2019-01-21T08:37:06.792Z,63.90
2019-01-21T08:39:55.136Z,61.70
2019-01-21T08:42:41.372Z,61.10
2019-01-21T08:45:31.057Z,57.67
2019-01-21T08:48:19.358Z,57.27
2019-01-21T08:51:05.887Z,57.20
2019-01-21T08:53:46.118Z,57.90
2019-01-21T08:56:30.167Z,54.50
2019-01-21T08:59:07.863Z,52.67
2019-01-21T09:01:57.542Z,53.57
2019-01-21T09:04:47.542Z,52.53
2019-01-21T09:07:35.565Z,65.83
2019-01-21T09:10:12.958Z,73.40
2019-01-21T09:13:02.228Z,73.43
2019-01-21T09:15:36.391Z,74.37
2019-01-21T09:18:13.804Z,70.03
2019-01-21T09:20:54.309Z,71.40
2019-01-21T09:23:37.827Z,69.23
2019-01-21T09:26:21.568Z,71.60
2019-01-21T09:28:56.088Z,81.10
2019-01-21T09:31:57.933Z,78.53
2019-01-21T09:34:38.627Z,72.40
2019-01-21T09:37:31.039Z,73.83
2019-01-21T09:40:18.908Z,71.90
2019-01-21T09:43:05.726Z,75.37
2019-01-21T09:45:40.357Z,75.17
2019-01-21T09:48:08.013Z,78.80
2019-01-21T09:50:36.680Z,82.37
2019-01-21T09:53:05.353Z,81.40
2019-01-21T09:55:34.263Z,80.93
2019-01-21T09:58:07.711Z,80.70
2019-01-21T10:00:36.350Z,79.90
2019-01-21T10:03:05.539Z,80.30
2019-01-21T10:05:35.258Z,97.10
2019-01-21T10:08:15.927Z,105.30
2019-01-21T10:10:56.422Z,107.77
2019-01-21T10:13:28.069Z,110.17
2019-01-21T10:16:08.701Z,103.57
2019-01-21T10:19:10.590Z,98.73
2019-01-21T10:22:00.655Z,99.03
2019-01-21T10:24:44.395Z,95.57
2019-01-21T10:27:21.321Z,101.33
2019-01-21T10:30:12.595Z,100.70
2019-01-21T10:33:02.384Z,95.73
2019-01-21T10:35:43.105Z,94.57
2019-01-21T10:38:23.265Z,90.67
2019-01-21T10:41:00.412Z,90.17
2019-01-21T10:43:40.591Z,84.73
2019-01-21T10:46:14.766Z,80.13
2019-01-21T10:48:51.555Z,80.00
2019-01-21T10:51:29.222Z,87.77
2019-01-21T10:54:00.800Z,106.93
2019-01-21T10:56:32.353Z,118.50
2019-01-21T10:59:22.215Z,112.23
2019-01-21T11:01:59.834Z,111.70
2019-01-21T11:04:49.592Z,125.03
2019-01-21T11:07:30.358Z,133.97
2019-01-21T11:10:07.821Z,129.50
2019-01-21T11:12:58.627Z,117.87
2019-01-21T11:15:30.514Z,114.43
2019-01-21T11:18:08.210Z,118.33
2019-01-21T11:20:48.523Z,108.23
2019-01-21T11:23:41.428Z,101.03
2019-01-21T11:26:46.146Z,99.47
2019-01-21T11:29:20.683Z,95.07
2019-01-21T11:32:19.574Z,93.50
2019-01-21T11:35:06.112Z,92.60
2019-01-21T11:38:01.595Z,84.70
2019-01-21T11:40:48.022Z,81.63
2019-01-21T11:43:30.944Z,78.67
2019-01-21T11:46:11.418Z,78.37
2019-01-21T11:48:58.096Z,73.40
2019-01-21T11:51:53.699Z,72.90
2019-01-21T11:54:33.934Z,63.73
2019-01-21T11:57:14.627Z,63.97
2019-01-21T11:59:48.863Z,64.37
2019-01-21T12:02:23.673Z,67.03
2019-01-21T12:05:22.305Z,65.47
2019-01-21T12:08:08.768Z,63.40
2019-01-21T12:10:59.885Z,64.50
2019-01-21T12:13:37.578Z,62.20
2019-01-21T12:16:24.023Z,60.63
2019-01-21T12:21:43.541Z,57.23
2019-01-21T12:24:14.764Z,57.00
2019-01-21T12:26:46.335Z,54.43
2019-01-21T12:29:21.098Z,51.33
2019-01-21T12:32:09.598Z,52.63
2019-01-21T12:34:47.253Z,55.43
2019-01-21T12:37:21.364Z,57.37
2019-01-21T12:39:58.749Z,56.40
2019-01-21T12:42:36.243Z,57.23
2019-01-21T12:45:29.004Z,57.67
2019-01-21T12:48:09.459Z,54.80
2019-01-21T12:50:57.638Z,52.37
2019-01-21T12:53:52.658Z,48.97
2019-01-21T12:56:40.854Z,48.17
2019-01-21T12:59:18.543Z,53.67
2019-01-21T13:01:56.050Z,53.43
2019-01-21T13:04:36.288Z,55.43
2019-01-21T13:07:13.305Z,57.07
2019-01-21T13:10:05.923Z,56.73
2019-01-21T13:13:00.303Z,56.93
2019-01-21T13:15:31.867Z,55.93
2019-01-21T13:18:23.992Z,53.90
2019-01-21T13:20:55.865Z,58.33
2019-01-21T13:23:30.027Z,66.43
2019-01-21T13:26:24.245Z,66.33
2019-01-21T13:28:58.679Z,64.93
2019-01-21T13:31:54.599Z,63.87
2019-01-21T13:34:44.174Z,66.17
2019-01-21T13:37:33.810Z,66.03
2019-01-21T13:40:19.853Z,65.07
2019-01-21T13:43:03.279Z,64.97
2019-01-21T13:45:47.326Z,60.23
2019-01-21T13:48:18.874Z,67.60
2019-01-21T13:50:50.478Z,84.17
2019-01-21T13:53:37.134Z,85.97
2019-01-21T13:56:24.170Z,88.73
2019-01-21T13:58:58.887Z,88.57
2019-01-21T14:01:36.477Z,89.27
2019-01-21T14:04:25.888Z,85.30
2019-01-21T14:07:18.727Z,85.30
2019-01-21T14:10:02.040Z,84.53
2019-01-21T14:12:48.961Z,86.97
2019-01-21T14:15:29.521Z,81.70
2019-01-21T14:18:23.488Z,81.53
2019-01-21T14:21:00.922Z,78.03
2019-01-21T14:23:34.955Z,76.10
2019-01-21T14:26:24.263Z,74.63
2019-01-21T14:29:04.607Z,73.40
2019-01-21T14:31:58.599Z,70.33
2019-01-21T14:34:39.302Z,72.97
2019-01-21T14:37:23.808Z,76.37
2019-01-21T14:40:06.956Z,80.97
2019-01-21T14:42:41.581Z,80.43
2019-01-21T14:45:29.542Z,76.40
2019-01-21T14:48:16.032Z,78.40
2019-01-21T14:50:59.907Z,74.33
2019-01-21T14:53:50.583Z,73.70
2019-01-21T14:56:25.297Z,72.73
2019-01-21T14:58:59.518Z,69.77
2019-01-21T15:01:34.244Z,67.87
2019-01-21T15:04:06.228Z,64.40
2019-01-21T15:06:49.903Z,64.43
2019-01-21T15:09:30.605Z,67.07
2019-01-21T15:12:23.598Z,88.80
2019-01-21T15:15:01.341Z,97.27
2019-01-21T15:17:55.766Z,83.13
2019-01-21T15:20:27.390Z,76.13
2019-01-21T15:23:01.727Z,69.27
2019-01-21T15:25:42.176Z,71.20
2019-01-21T15:28:29.112Z,67.30
2019-01-21T15:31:23.521Z,63.87
2019-01-21T15:37:10.031Z,60.63
2019-01-21T15:39:55.731Z,67.17
2019-01-21T15:42:42.314Z,75.30
2019-01-21T15:45:51.796Z,86.13
2019-01-21T15:48:31.065Z,89.27
2019-01-21T15:51:08.550Z,92.67
2019-01-21T15:53:40.177Z,93.77
2019-01-21T15:56:11.802Z,92.87
2019-01-21T15:58:55.832Z,89.17
2019-01-21T16:01:33.730Z,87.67
2019-01-21T16:04:14.405Z,83.33
2019-01-21T16:06:48.632Z,87.37
2019-01-21T16:09:44.333Z,84.20
2019-01-21T16:12:39.479Z,105.17
2019-01-21T16:15:16.347Z,126.77
2019-01-21T16:17:53.498Z,129.63
2019-01-21T16:20:25.468Z,112.30
2019-01-21T16:22:57.038Z,104.17
2019-01-21T16:25:31.714Z,102.87
2019-01-21T16:28:18.587Z,98.70
2019-01-21T16:30:50.263Z,98.27
2019-01-21T16:33:24.803Z,95.37
2019-01-21T16:35:59.149Z,94.40
2019-01-21T16:38:27.451Z,92.47
2019-01-21T16:41:07.605Z,93.17
2019-01-21T16:43:35.904Z,89.83
2019-01-21T16:46:04.196Z,88.43
2019-01-21T16:48:32.501Z,88.60
2019-01-21T16:51:01.114Z,87.53
2019-01-21T16:53:29.693Z,90.50
2019-01-21T16:55:57.981Z,85.73
2019-01-21T16:58:26.283Z,87.47
2019-01-21T17:00:54.925Z,82.00
2019-01-21T17:03:23.210Z,82.77
2019-01-21T17:05:51.686Z,87.70
2019-01-21T17:08:20.363Z,83.80
2019-01-21T17:10:48.687Z,86.40
2019-01-21T17:13:16.990Z,84.63
2019-01-21T17:15:45.280Z,85.33
2019-01-21T17:18:13.902Z,87.60
2019-01-21T17:20:42.571Z,94.17
2019-01-21T17:23:11.106Z,102.07
2019-01-21T17:25:39.510Z,105.03
2019-01-21T17:28:07.839Z,105.20
2019-01-21T17:30:36.151Z,105.67
2019-01-21T17:33:04.456Z,103.50
2019-01-21T17:35:32.770Z,99.60
2019-01-21T17:38:01.166Z,96.83
2019-01-21T17:40:29.475Z,90.77
2019-01-21T17:42:57.778Z,88.13
2019-01-21T17:45:26.074Z,89.40
2019-01-21T17:47:54.748Z,85.87
2019-01-21T17:50:23.324Z,84.80
2019-01-21T17:52:51.623Z,81.37
2019-01-21T17:55:19.911Z,81.67
2019-01-21T17:57:48.223Z,80.43
2019-01-21T18:00:20.633Z,85.10
2019-01-21T18:02:48.960Z,90.53
2019-01-21T18:05:17.328Z,90.43
2019-01-21T18:07:45.979Z,89.83
2019-01-21T18:10:16.862Z,86.93
2019-01-21T18:12:45.498Z,85.47
2019-01-21T18:15:13.991Z,79.30
2019-01-21T18:17:42.573Z,77.07
2019-01-21T18:20:19.402Z,75.77
2019-01-21T18:22:47.685Z,77.23
2019-01-21T18:25:16.298Z,74.80
2019-01-21T18:27:44.824Z,73.43
2019-01-21T18:30:16.214Z,71.80
2019-01-21T18:32:44.497Z,77.50
2019-01-21T18:35:13.349Z,78.73
2019-01-21T18:37:41.642Z,77.93
2019-01-21T18:40:12.559Z,74.70
2019-01-21T18:42:40.866Z,74.67
2019-01-21T18:45:11.807Z,72.13
2019-01-21T18:47:40.093Z,70.83
2019-01-21T18:50:10.426Z,70.17
2019-01-21T18:52:39.120Z,68.90
2019-01-21T18:55:09.003Z,68.53
2019-01-21T18:57:37.320Z,72.13
2019-01-21T19:00:11.735Z,78.33
2019-01-21T19:02:40.317Z,78.33
2019-01-21T19:05:09.449Z,78.07
2019-01-21T19:07:37.738Z,78.53
2019-01-21T19:10:09.284Z,78.47
2019-01-21T19:12:38.029Z,75.10
2019-01-21T19:15:15.763Z,69.73
2019-01-21T19:17:44.420Z,69.37
2019-01-21T19:20:14.739Z,69.80
2019-01-21T19:22:43.125Z,76.23
2019-01-21T19:25:11.916Z,73.90
2019-01-21T19:27:40.336Z,71.10
2019-01-21T19:30:12.287Z,73.27
2019-01-21T19:32:40.662Z,69.83
2019-01-21T19:35:12.585Z,68.47
2019-01-21T19:37:41.287Z,61.50
2019-01-21T19:40:16.039Z,58.70
2019-01-21T19:42:44.694Z,57.03
2019-01-21T19:45:13.402Z,60.63
2019-01-21T19:47:41.963Z,61.70
2019-01-21T19:50:18.698Z,60.73
2019-01-21T19:52:47.275Z,61.43
2019-01-21T19:55:21.580Z,63.87
2019-01-21T19:57:50.220Z,65.70
2019-01-21T20:00:22.320Z,62.93
2019-01-21T20:02:50.635Z,62.00
2019-01-21T20:05:18.948Z,61.50
2019-01-21T20:07:47.533Z,59.63
2019-01-21T20:10:20.827Z,57.37
2019-01-21T20:12:49.178Z,56.13
2019-01-21T20:15:18.122Z,56.40
2019-01-21T20:17:46.791Z,61.17
2019-01-21T20:20:24.068Z,57.93
2019-01-21T20:22:57.416Z,62.33
2019-01-21T20:25:22.461Z,68.40
2019-01-21T20:27:51.239Z,66.57
2019-01-21T20:30:21.708Z,66.10
2019-01-21T20:32:50.021Z,63.70
2019-01-21T20:35:18.735Z,63.67
2019-01-21T20:37:47.327Z,61.87
2019-01-21T20:40:21.663Z,61.10
2019-01-21T20:42:50.418Z,59.67
2019-01-21T20:45:19.113Z,59.60
2019-01-21T20:47:47.446Z,58.77
2019-01-21T20:50:21.547Z,62.03
2019-01-21T20:52:53.262Z,61.10
2019-01-21T20:55:21.951Z,58.73
2019-01-21T20:57:52.910Z,60.00
2019-01-21T21:00:24.127Z,58.93
2019-01-21T21:02:53.714Z,56.80
2019-01-21T21:05:22.006Z,56.60
2019-01-21T21:07:50.618Z,56.30
2019-01-21T21:10:19.391Z,55.37
2019-01-21T21:12:47.691Z,53.20
2019-01-21T21:15:24.647Z,52.57
2019-01-21T21:17:52.953Z,51.43
2019-01-21T21:20:22.590Z,52.30
2019-01-21T21:22:50.927Z,52.00
2019-01-21T21:25:19.568Z,52.10
2019-01-21T21:27:48.355Z,58.97
2019-01-21T21:30:23.042Z,57.37
2019-01-21T21:32:51.327Z,59.00
2019-01-21T21:35:20.005Z,54.07
2019-01-21T21:37:48.663Z,55.27
2019-01-21T21:40:19.208Z,54.03
2019-01-21T21:42:47.515Z,54.90
2019-01-21T21:45:17.675Z,52.20
2019-01-21T21:47:46.367Z,49.50
2019-01-21T21:50:22.914Z,55.47
2019-01-21T21:52:51.628Z,56.50
2019-01-21T21:55:19.928Z,59.07
2019-01-21T21:57:48.303Z,61.47
2019-01-21T22:00:19.208Z,57.03
2019-01-21T22:02:47.940Z,56.00
2019-01-21T22:05:16.343Z,100.13
2019-01-21T22:07:44.731Z,77.60
2019-01-21T22:10:19.580Z,75.37
2019-01-21T22:12:45.713Z,91.20
2019-01-21T22:15:16.395Z,82.27
2019-01-21T22:17:45.046Z,74.87
2019-01-21T22:20:15.787Z,84.77
2019-01-21T22:22:44.103Z,91.10
2019-01-21T22:25:12.734Z,89.30
2019-01-21T22:27:41.093Z,93.87
2019-01-21T22:30:18.110Z,90.33
2019-01-21T22:32:46.413Z,86.10
2019-01-21T22:35:15.058Z,79.27
2019-01-21T22:37:43.819Z,82.30
2019-01-21T22:40:16.852Z,75.40
2019-01-21T22:42:45.414Z,78.23
2019-01-21T22:45:15.309Z,77.90
2019-01-21T22:47:44.023Z,75.30
2019-01-21T22:50:14.484Z,76.53
2019-01-21T22:52:43.145Z,75.40
2019-01-21T22:55:12.963Z,71.80
2019-01-21T22:57:41.627Z,72.27
2019-01-21T23:00:31.314Z,69.50
2019-01-21T23:02:59.598Z,78.67
2019-01-21T23:05:27.967Z,89.00
2019-01-21T23:07:56.542Z,96.63
2019-01-21T23:10:25.240Z,97.00
2019-01-21T23:12:53.902Z,100.67
2019-01-21T23:15:22.243Z,98.97
2019-01-21T23:17:50.882Z,99.13
2019-01-21T23:20:19.471Z,98.00
2019-01-21T23:22:49.335Z,102.77
2019-01-21T23:25:18.274Z,103.07
2019-01-21T23:27:46.863Z,103.60
2019-01-21T23:30:22.731Z,110.50
2019-01-21T23:32:51.394Z,108.60
2019-01-21T23:35:19.778Z,103.93
2019-01-21T23:37:48.099Z,100.27
2019-01-21T23:40:16.468Z,101.33
2019-01-21T23:42:45.128Z,101.83
2019-01-21T23:45:13.733Z,99.70
2019-01-21T23:47:42.389Z,97.07
2019-01-21T23:50:15.070Z,99.20
2019-01-21T23:52:43.374Z,94.27
2019-01-21T23:55:12.705Z,94.63
2019-01-21T23:57:41.328Z,93.93
